sensor_id;sensor_type;location;lat;lon;timestamp;temperature;humidity
38380;DHT22;38377;47.418;18.882;2022-10-26T00:01:06;10.20;99.90
38380;DHT22;38377;47.418;18.882;2022-10-26T00:03:33;10.10;99.90
38380;DHT22;38377;47.418;18.882;2022-10-26T00:06:19;10.10;99.90
38380;DHT22;38377;47.418;18.882;2022-10-26T00:08:46;10.00;99.90
38380;DHT22;38377;47.418;18.882;2022-10-26T00:11:13;10.00;99.90
38380;DHT22;38377;47.418;18.882;2022-10-26T00:13:40;9.90;99.90
38380;DHT22;38377;47.418;18.882;2022-10-26T00:16:21;9.90;99.90
38380;DHT22;38377;47.418;18.882;2022-10-26T00:18:48;9.80;99.90
38380;DHT22;38377;47.418;18.882;2022-10-26T00:21:14;9.90;99.90
38380;DHT22;38377;47.418;18.882;2022-10-26T00:23:40;10.00;99.90
38380;DHT22;38377;47.418;18.882;2022-10-26T00:26:06;10.10;99.90
38380;DHT22;38377;47.418;18.882;2022-10-26T00:28:32;10.20;99.90
38380;DHT22;38377;47.418;18.882;2022-10-26T00:31:06;10.20;99.90
38380;DHT22;38377;47.418;18.882;2022-10-26T00:33:33;10.20;99.90
38380;DHT22;38377;47.418;18.882;2022-10-26T00:35:59;10.20;99.90
38380;DHT22;38377;47.418;18.882;2022-10-26T00:38:24;10.10;99.90
38380;DHT22;38377;47.418;18.882;2022-10-26T00:40:50;10.00;99.90
38380;DHT22;38377;47.418;18.882;2022-10-26T00:43:37;9.90;99.90
38380;DHT22;38377;47.418;18.882;2022-10-26T00:46:06;9.90;99.90
38380;DHT22;38377;47.418;18.882;2022-10-26T00:48:40;9.80;99.90
38380;DHT22;38377;47.418;18.882;2022-10-26T00:51:43;9.70;99.90
38380;DHT22;38377;47.418;18.882;2022-10-26T00:54:06;9.60;99.90
38380;DHT22;38377;47.418;18.882;2022-10-26T00:56:34;9.60;99.90
38380;DHT22;38377;47.418;18.882;2022-10-26T00:59:04;9.50;99.90
38380;DHT22;38377;47.418;18.882;2022-10-26T01:01:32;9.40;99.90
38380;DHT22;38377;47.418;18.882;2022-10-26T01:04:00;9.40;99.90
38380;DHT22;38377;47.418;18.882;2022-10-26T01:06:29;9.30;99.90
38380;DHT22;38377;47.418;18.882;2022-10-26T01:08:56;9.30;99.90
38380;DHT22;38377;47.418;18.882;2022-10-26T01:11:22;9.30;99.90
38380;DHT22;38377;47.418;18.882;2022-10-26T01:13:49;9.30;99.90
38380;DHT22;38377;47.418;18.882;2022-10-26T01:21:54;9.20;99.90
38380;DHT22;38377;47.418;18.882;2022-10-26T01:24:58;9.20;99.90
38380;DHT22;38377;47.418;18.882;2022-10-26T01:27:35;9.10;99.90
38380;DHT22;38377;47.418;18.882;2022-10-26T01:33:17;9.00;99.90
38380;DHT22;38377;47.418;18.882;2022-10-26T01:41:19;8.90;99.90
38380;DHT22;38377;47.418;18.882;2022-10-26T01:43:51;8.90;99.90
38380;DHT22;38377;47.418;18.882;2022-10-26T01:46:20;8.90;99.90
38380;DHT22;38377;47.418;18.882;2022-10-26T01:48:51;8.80;99.90
38380;DHT22;38377;47.418;18.882;2022-10-26T01:51:18;8.80;99.90
38380;DHT22;38377;47.418;18.882;2022-10-26T01:53:45;8.80;99.90
38380;DHT22;38377;47.418;18.882;2022-10-26T01:56:22;8.70;99.90
38380;DHT22;38377;47.418;18.882;2022-10-26T01:59:00;8.70;99.90
38380;DHT22;38377;47.418;18.882;2022-10-26T02:04:27;8.60;99.90
38380;DHT22;38377;47.418;18.882;2022-10-26T02:12:35;8.50;99.90
38380;DHT22;38377;47.418;18.882;2022-10-26T02:15:07;8.40;99.90
38380;DHT22;38377;47.418;18.882;2022-10-26T02:20:35;8.40;99.90
38380;DHT22;38377;47.418;18.882;2022-10-26T02:23:03;8.40;99.90
38380;DHT22;38377;47.418;18.882;2022-10-26T02:25:34;8.40;99.90
38380;DHT22;38377;47.418;18.882;2022-10-26T02:28:11;8.40;99.90
38380;DHT22;38377;47.418;18.882;2022-10-26T02:30:38;8.40;99.90
38380;DHT22;38377;47.418;18.882;2022-10-26T02:33:06;8.30;99.90
38380;DHT22;38377;47.418;18.882;2022-10-26T02:35:35;8.30;99.90
38380;DHT22;38377;47.418;18.882;2022-10-26T02:38:06;8.30;99.90
38380;DHT22;38377;47.418;18.882;2022-10-26T02:40:33;8.20;99.90
38380;DHT22;38377;47.418;18.882;2022-10-26T02:43:04;8.20;99.90
38380;DHT22;38377;47.418;18.882;2022-10-26T02:45:36;8.20;99.90
38380;DHT22;38377;47.418;18.882;2022-10-26T02:48:02;8.10;99.90
38380;DHT22;38377;47.418;18.882;2022-10-26T02:50:52;8.10;99.90
38380;DHT22;38377;47.418;18.882;2022-10-26T02:53:57;8.10;99.90
38380;DHT22;38377;47.418;18.882;2022-10-26T02:56:35;8.00;99.90
38380;DHT22;38377;47.418;18.882;2022-10-26T02:59:06;8.00;99.90
38380;DHT22;38377;47.418;18.882;2022-10-26T03:01:33;8.00;99.90
38380;DHT22;38377;47.418;18.882;2022-10-26T03:03:59;8.00;99.90
38380;DHT22;38377;47.418;18.882;2022-10-26T03:06:25;8.00;99.90
38380;DHT22;38377;47.418;18.882;2022-10-26T03:08:51;8.00;99.90
38380;DHT22;38377;47.418;18.882;2022-10-26T03:11:17;8.00;99.90
38380;DHT22;38377;47.418;18.882;2022-10-26T03:13:43;8.00;99.90
38380;DHT22;38377;47.418;18.882;2022-10-26T03:16:10;8.00;99.90
38380;DHT22;38377;47.418;18.882;2022-10-26T03:18:36;8.10;99.90
38380;DHT22;38377;47.418;18.882;2022-10-26T03:21:01;8.10;99.90
38380;DHT22;38377;47.418;18.882;2022-10-26T03:23:27;8.10;99.90
38380;DHT22;38377;47.418;18.882;2022-10-26T03:25:57;8.10;99.90
38380;DHT22;38377;47.418;18.882;2022-10-26T03:28:23;8.20;99.90
38380;DHT22;38377;47.418;18.882;2022-10-26T03:30:48;8.20;99.90
38380;DHT22;38377;47.418;18.882;2022-10-26T03:33:14;8.20;99.90
38380;DHT22;38377;47.418;18.882;2022-10-26T03:35:40;8.30;99.90
38380;DHT22;38377;47.418;18.882;2022-10-26T03:38:05;8.30;99.90
38380;DHT22;38377;47.418;18.882;2022-10-26T03:40:31;8.40;99.90
38380;DHT22;38377;47.418;18.882;2022-10-26T03:42:57;8.40;99.90
38380;DHT22;38377;47.418;18.882;2022-10-26T03:45:23;8.30;99.90
38380;DHT22;38377;47.418;18.882;2022-10-26T03:47:48;8.20;99.90
38380;DHT22;38377;47.418;18.882;2022-10-26T03:50:17;8.10;99.90
38380;DHT22;38377;47.418;18.882;2022-10-26T03:52:44;8.10;99.90
38380;DHT22;38377;47.418;18.882;2022-10-26T03:55:10;8.10;99.90
38380;DHT22;38377;47.418;18.882;2022-10-26T03:57:43;8.10;99.90
38380;DHT22;38377;47.418;18.882;2022-10-26T04:00:11;8.10;99.90
38380;DHT22;38377;47.418;18.882;2022-10-26T04:02:37;8.10;99.90
38380;DHT22;38377;47.418;18.882;2022-10-26T04:05:03;8.10;99.90
38380;DHT22;38377;47.418;18.882;2022-10-26T04:07:29;8.10;99.90
38380;DHT22;38377;47.418;18.882;2022-10-26T04:09:54;8.00;99.90
38380;DHT22;38377;47.418;18.882;2022-10-26T04:12:20;8.00;99.90
38380;DHT22;38377;47.418;18.882;2022-10-26T04:14:46;8.00;99.90
38380;DHT22;38377;47.418;18.882;2022-10-26T04:17:11;8.00;99.90
38380;DHT22;38377;47.418;18.882;2022-10-26T04:19:37;8.00;99.90
38380;DHT22;38377;47.418;18.882;2022-10-26T04:22:02;8.00;99.90
38380;DHT22;38377;47.418;18.882;2022-10-26T04:24:28;8.00;99.90
38380;DHT22;38377;47.418;18.882;2022-10-26T04:26:54;8.00;99.90
38380;DHT22;38377;47.418;18.882;2022-10-26T04:29:19;8.10;99.90
38380;DHT22;38377;47.418;18.882;2022-10-26T04:31:45;8.00;99.90
38380;DHT22;38377;47.418;18.882;2022-10-26T04:34:11;8.00;99.90
38380;DHT22;38377;47.418;18.882;2022-10-26T04:36:36;8.00;99.90
38380;DHT22;38377;47.418;18.882;2022-10-26T04:39:02;8.10;99.90
38380;DHT22;38377;47.418;18.882;2022-10-26T04:41:28;8.00;99.90
38380;DHT22;38377;47.418;18.882;2022-10-26T04:43:53;8.10;99.90
38380;DHT22;38377;47.418;18.882;2022-10-26T04:46:19;8.20;99.90
38380;DHT22;38377;47.418;18.882;2022-10-26T04:48:47;8.20;99.90
38380;DHT22;38377;47.418;18.882;2022-10-26T04:51:12;8.20;99.90
38380;DHT22;38377;47.418;18.882;2022-10-26T04:53:38;8.10;99.90
38380;DHT22;38377;47.418;18.882;2022-10-26T04:56:04;8.10;99.90
38380;DHT22;38377;47.418;18.882;2022-10-26T04:58:30;8.10;99.90
38380;DHT22;38377;47.418;18.882;2022-10-26T05:00:56;8.10;99.90
38380;DHT22;38377;47.418;18.882;2022-10-26T05:03:22;8.10;99.90
38380;DHT22;38377;47.418;18.882;2022-10-26T05:05:48;8.10;99.90
38380;DHT22;38377;47.418;18.882;2022-10-26T05:08:14;8.10;99.90
38380;DHT22;38377;47.418;18.882;2022-10-26T05:10:40;8.10;99.90
38380;DHT22;38377;47.418;18.882;2022-10-26T05:13:08;8.10;99.90
38380;DHT22;38377;47.418;18.882;2022-10-26T05:15:33;8.10;99.90
38380;DHT22;38377;47.418;18.882;2022-10-26T05:18:01;8.10;99.90
38380;DHT22;38377;47.418;18.882;2022-10-26T05:20:29;8.10;99.90
38380;DHT22;38377;47.418;18.882;2022-10-26T05:23:00;8.10;99.90
38380;DHT22;38377;47.418;18.882;2022-10-26T05:25:28;8.10;99.90
38380;DHT22;38377;47.418;18.882;2022-10-26T05:28:05;8.10;99.90
38380;DHT22;38377;47.418;18.882;2022-10-26T05:30:32;8.10;99.90
38380;DHT22;38377;47.418;18.882;2022-10-26T05:33:00;8.10;99.90
38380;DHT22;38377;47.418;18.882;2022-10-26T05:35:27;8.00;99.90
38380;DHT22;38377;47.418;18.882;2022-10-26T05:37:53;8.10;99.90
38380;DHT22;38377;47.418;18.882;2022-10-26T05:40:19;8.10;99.90
38380;DHT22;38377;47.418;18.882;2022-10-26T05:42:45;8.20;99.90
38380;DHT22;38377;47.418;18.882;2022-10-26T05:45:11;8.10;99.90
38380;DHT22;38377;47.418;18.882;2022-10-26T05:47:41;8.20;99.90
38380;DHT22;38377;47.418;18.882;2022-10-26T05:50:08;8.20;99.90
38380;DHT22;38377;47.418;18.882;2022-10-26T05:52:41;8.20;99.90
38380;DHT22;38377;47.418;18.882;2022-10-26T05:55:08;8.30;99.90
38380;DHT22;38377;47.418;18.882;2022-10-26T05:57:35;8.50;99.90
38380;DHT22;38377;47.418;18.882;2022-10-26T06:00:06;8.50;99.90
38380;DHT22;38377;47.418;18.882;2022-10-26T06:02:39;8.60;99.90
38380;DHT22;38377;47.418;18.882;2022-10-26T06:05:08;8.60;99.90
38380;DHT22;38377;47.418;18.882;2022-10-26T06:07:36;8.70;99.90
38380;DHT22;38377;47.418;18.882;2022-10-26T06:10:02;8.80;99.90
38380;DHT22;38377;47.418;18.882;2022-10-26T06:12:28;9.00;99.90
38380;DHT22;38377;47.418;18.882;2022-10-26T06:14:54;9.10;99.90
38380;DHT22;38377;47.418;18.882;2022-10-26T06:30:32;9.70;99.90
38380;DHT22;38377;47.418;18.882;2022-10-26T06:32:58;9.80;99.90
38380;DHT22;38377;47.418;18.882;2022-10-26T06:38:02;10.30;99.90
38380;DHT22;38377;47.418;18.882;2022-10-26T06:40:31;10.40;99.90
38380;DHT22;38377;47.418;18.882;2022-10-26T06:42:58;10.60;99.90
38380;DHT22;38377;47.418;18.882;2022-10-26T06:45:24;10.80;99.90
38380;DHT22;38377;47.418;18.882;2022-10-26T06:48:03;11.10;99.90
38380;DHT22;38377;47.418;18.882;2022-10-26T06:50:51;11.30;99.90
38380;DHT22;38377;47.418;18.882;2022-10-26T06:53:40;11.60;99.90
38380;DHT22;38377;47.418;18.882;2022-10-26T06:56:10;11.80;99.90
38380;DHT22;38377;47.418;18.882;2022-10-26T06:58:36;12.00;99.90
38380;DHT22;38377;47.418;18.882;2022-10-26T07:01:04;12.30;99.90
38380;DHT22;38377;47.418;18.882;2022-10-26T07:03:30;12.50;99.90
38380;DHT22;38377;47.418;18.882;2022-10-26T07:05:55;12.70;99.90
38380;DHT22;38377;47.418;18.882;2022-10-26T07:08:21;12.90;99.90
38380;DHT22;38377;47.418;18.882;2022-10-26T07:10:47;13.10;99.90
38380;DHT22;38377;47.418;18.882;2022-10-26T07:13:13;13.40;99.90
38380;DHT22;38377;47.418;18.882;2022-10-26T07:15:40;13.50;99.90
38380;DHT22;38377;47.418;18.882;2022-10-26T07:18:07;13.70;99.90
38380;DHT22;38377;47.418;18.882;2022-10-26T07:20:40;13.90;99.90
38380;DHT22;38377;47.418;18.882;2022-10-26T07:23:07;14.00;99.90
38380;DHT22;38377;47.418;18.882;2022-10-26T07:25:36;14.10;99.90
38380;DHT22;38377;47.418;18.882;2022-10-26T07:28:08;14.20;99.90
38380;DHT22;38377;47.418;18.882;2022-10-26T07:30:36;14.20;99.90
38380;DHT22;38377;47.418;18.882;2022-10-26T07:33:10;14.10;99.90
38380;DHT22;38377;47.418;18.882;2022-10-26T07:35:36;14.10;99.90
38380;DHT22;38377;47.418;18.882;2022-10-26T07:38:03;14.20;99.90
38380;DHT22;38377;47.418;18.882;2022-10-26T07:40:29;14.20;99.90
38380;DHT22;38377;47.418;18.882;2022-10-26T07:42:57;14.30;99.90
38380;DHT22;38377;47.418;18.882;2022-10-26T07:45:23;14.20;99.90
38380;DHT22;38377;47.418;18.882;2022-10-26T07:47:49;14.30;99.90
38380;DHT22;38377;47.418;18.882;2022-10-26T07:50:15;14.20;99.90
38380;DHT22;38377;47.418;18.882;2022-10-26T07:52:41;14.10;99.90
38380;DHT22;38377;47.418;18.882;2022-10-26T07:55:11;14.00;99.90
38380;DHT22;38377;47.418;18.882;2022-10-26T07:57:37;14.00;99.90
38380;DHT22;38377;47.418;18.882;2022-10-26T08:00:04;14.00;99.90
38380;DHT22;38377;47.418;18.882;2022-10-26T08:02:31;14.20;99.90
38380;DHT22;38377;47.418;18.882;2022-10-26T08:04:56;14.30;99.90
38380;DHT22;38377;47.418;18.882;2022-10-26T08:07:22;14.30;99.90
38380;DHT22;38377;47.418;18.882;2022-10-26T08:09:48;14.30;99.90
38380;DHT22;38377;47.418;18.882;2022-10-26T08:12:13;14.10;99.90
38380;DHT22;38377;47.418;18.882;2022-10-26T08:14:41;14.10;99.90
38380;DHT22;38377;47.418;18.882;2022-10-26T08:17:07;13.90;99.90
38380;DHT22;38377;47.418;18.882;2022-10-26T08:19:32;13.70;99.90
38380;DHT22;38377;47.418;18.882;2022-10-26T08:21:58;13.30;99.90
38380;DHT22;38377;47.418;18.882;2022-10-26T08:24:24;12.90;99.90
38380;DHT22;38377;47.418;18.882;2022-10-26T08:26:49;12.70;99.90
38380;DHT22;38377;47.418;18.882;2022-10-26T08:29:15;12.60;99.90
38380;DHT22;38377;47.418;18.882;2022-10-26T08:31:41;12.40;99.90
38380;DHT22;38377;47.418;18.882;2022-10-26T08:34:06;12.40;99.90
38380;DHT22;38377;47.418;18.882;2022-10-26T08:36:32;12.30;99.90
38380;DHT22;38377;47.418;18.882;2022-10-26T08:38:58;12.40;99.90
38380;DHT22;38377;47.418;18.882;2022-10-26T08:41:36;12.60;99.90
38380;DHT22;38377;47.418;18.882;2022-10-26T08:44:27;12.50;99.90
38380;DHT22;38377;47.418;18.882;2022-10-26T08:47:10;12.50;99.90
38380;DHT22;38377;47.418;18.882;2022-10-26T08:52:23;12.60;99.90
38380;DHT22;38377;47.418;18.882;2022-10-26T08:54:56;12.80;99.90
38380;DHT22;38377;47.418;18.882;2022-10-26T08:57:27;12.80;99.90
38380;DHT22;38377;47.418;18.882;2022-10-26T08:59:56;12.80;99.90
38380;DHT22;38377;47.418;18.882;2022-10-26T09:02:23;12.80;99.90
38380;DHT22;38377;47.418;18.882;2022-10-26T09:04:51;12.70;99.90
38380;DHT22;38377;47.418;18.882;2022-10-26T09:16:14;13.40;99.90
38380;DHT22;38377;47.418;18.882;2022-10-26T09:22:03;13.60;99.90
38380;DHT22;38377;47.418;18.882;2022-10-26T09:24:33;13.70;99.90
38380;DHT22;38377;47.418;18.882;2022-10-26T09:27:28;13.70;99.90
38380;DHT22;38377;47.418;18.882;2022-10-26T09:29:55;13.80;99.90
38380;DHT22;38377;47.418;18.882;2022-10-26T09:32:33;13.90;99.90
38380;DHT22;38377;47.418;18.882;2022-10-26T09:35:16;14.10;99.90
38380;DHT22;38377;47.418;18.882;2022-10-26T09:37:47;14.30;99.90
38380;DHT22;38377;47.418;18.882;2022-10-26T09:40:49;14.30;99.90
38380;DHT22;38377;47.418;18.882;2022-10-26T09:43:36;14.20;99.90
38380;DHT22;38377;47.418;18.882;2022-10-26T09:46:04;13.90;99.90
38380;DHT22;38377;47.418;18.882;2022-10-26T09:48:40;13.70;99.90
38380;DHT22;38377;47.418;18.882;2022-10-26T09:51:07;13.60;99.90
38380;DHT22;38377;47.418;18.882;2022-10-26T09:53:33;13.40;99.90
38380;DHT22;38377;47.418;18.882;2022-10-26T09:56:19;13.40;99.90
38380;DHT22;38377;47.418;18.882;2022-10-26T09:58:46;13.30;99.90
38380;DHT22;38377;47.418;18.882;2022-10-26T10:04:29;13.30;99.90
38380;DHT22;38377;47.418;18.882;2022-10-26T10:09:27;13.40;99.90
38380;DHT22;38377;47.418;18.882;2022-10-26T10:11:58;13.50;99.90
38380;DHT22;38377;47.418;18.882;2022-10-26T10:15:12;13.50;99.90
38380;DHT22;38377;47.418;18.882;2022-10-26T10:17:20;13.60;99.90
38380;DHT22;38377;47.418;18.882;2022-10-26T10:19:47;13.70;99.90
38380;DHT22;38377;47.418;18.882;2022-10-26T10:25:01;13.90;99.90
38380;DHT22;38377;47.418;18.882;2022-10-26T10:27:29;13.90;99.90
38380;DHT22;38377;47.418;18.882;2022-10-26T10:29:58;14.10;99.90
38380;DHT22;38377;47.418;18.882;2022-10-26T10:32:26;14.20;99.90
38380;DHT22;38377;47.418;18.882;2022-10-26T10:34:55;14.40;99.90
38380;DHT22;38377;47.418;18.882;2022-10-26T10:37:41;14.70;99.90
38380;DHT22;38377;47.418;18.882;2022-10-26T10:40:19;14.80;99.90
38380;DHT22;38377;47.418;18.882;2022-10-26T10:42:46;14.70;99.90
38380;DHT22;38377;47.418;18.882;2022-10-26T10:45:24;14.80;99.90
38380;DHT22;38377;47.418;18.882;2022-10-26T10:48:11;14.90;99.90
38380;DHT22;38377;47.418;18.882;2022-10-26T10:51:05;15.10;99.90
38380;DHT22;38377;47.418;18.882;2022-10-26T10:53:55;15.00;99.90
38380;DHT22;38377;47.418;18.882;2022-10-26T10:59:35;14.90;99.90
38380;DHT22;38377;47.418;18.882;2022-10-26T11:08:08;14.80;99.90
38380;DHT22;38377;47.418;18.882;2022-10-26T11:10:41;14.80;99.90
38380;DHT22;38377;47.418;18.882;2022-10-26T11:13:22;14.70;99.90
38380;DHT22;38377;47.418;18.882;2022-10-26T11:15:51;14.70;99.90
38380;DHT22;38377;47.418;18.882;2022-10-26T11:18:42;14.70;99.90
38380;DHT22;38377;47.418;18.882;2022-10-26T11:21:29;14.80;99.90
38380;DHT22;38377;47.418;18.882;2022-10-26T11:29:41;15.10;99.90
38380;DHT22;38377;47.418;18.882;2022-10-26T11:32:56;15.20;99.90
38380;DHT22;38377;47.418;18.882;2022-10-26T11:35:21;15.50;99.90
38380;DHT22;38377;47.418;18.882;2022-10-26T11:40:56;15.80;99.90
38380;DHT22;38377;47.418;18.882;2022-10-26T11:43:45;16.00;99.90
38380;DHT22;38377;47.418;18.882;2022-10-26T11:49:04;16.00;99.90
38380;DHT22;38377;47.418;18.882;2022-10-26T11:51:48;16.00;99.90
38380;DHT22;38377;47.418;18.882;2022-10-26T11:56:52;16.40;99.90
38380;DHT22;38377;47.418;18.882;2022-10-26T11:59:27;16.50;99.90
38380;DHT22;38377;47.418;18.882;2022-10-26T12:02:13;16.30;99.90
38380;DHT22;38377;47.418;18.882;2022-10-26T12:04:41;16.20;99.90
38380;DHT22;38377;47.418;18.882;2022-10-26T12:07:15;16.20;99.90
38380;DHT22;38377;47.418;18.882;2022-10-26T12:09:44;16.20;99.90
38380;DHT22;38377;47.418;18.882;2022-10-26T12:13:00;16.20;99.90
38380;DHT22;38377;47.418;18.882;2022-10-26T12:20:56;16.20;99.90
38380;DHT22;38377;47.418;18.882;2022-10-26T12:23:31;16.10;99.90
38380;DHT22;38377;47.418;18.882;2022-10-26T12:34:14;16.20;99.90
38380;DHT22;38377;47.418;18.882;2022-10-26T12:39:39;16.20;99.90
38380;DHT22;38377;47.418;18.882;2022-10-26T12:50:00;16.40;99.90
38380;DHT22;38377;47.418;18.882;2022-10-26T13:01:23;16.40;99.90
38380;DHT22;38377;47.418;18.882;2022-10-26T13:12:25;16.30;99.90
38380;DHT22;38377;47.418;18.882;2022-10-26T13:14:58;16.40;99.90
38380;DHT22;38377;47.418;18.882;2022-10-26T13:17:27;16.30;99.90
38380;DHT22;38377;47.418;18.882;2022-10-26T13:20:03;16.30;99.90
38380;DHT22;38377;47.418;18.882;2022-10-26T13:22:30;16.30;99.90
38380;DHT22;38377;47.418;18.882;2022-10-26T13:25:01;16.20;99.90
38380;DHT22;38377;47.418;18.882;2022-10-26T13:32:38;16.10;99.90
38380;DHT22;38377;47.418;18.882;2022-10-26T13:35:10;16.10;99.90
38380;DHT22;38377;47.418;18.882;2022-10-26T13:37:36;16.10;99.90
38380;DHT22;38377;47.418;18.882;2022-10-26T13:40:06;16.10;99.90
38380;DHT22;38377;47.418;18.882;2022-10-26T13:42:50;16.10;99.90
38380;DHT22;38377;47.418;18.882;2022-10-26T13:50:24;16.00;99.90
38380;DHT22;38377;47.418;18.882;2022-10-26T13:53:05;16.00;99.90
38380;DHT22;38377;47.418;18.882;2022-10-26T14:00:39;16.00;99.90
38380;DHT22;38377;47.418;18.882;2022-10-26T14:03:17;16.00;99.90
38380;DHT22;38377;47.418;18.882;2022-10-26T14:05:47;16.00;99.90
38380;DHT22;38377;47.418;18.882;2022-10-26T14:08:16;16.00;99.90
38380;DHT22;38377;47.418;18.882;2022-10-26T14:10:46;16.10;99.90
38380;DHT22;38377;47.418;18.882;2022-10-26T14:13:15;16.10;99.90
38380;DHT22;38377;47.418;18.882;2022-10-26T14:15:43;16.10;99.90
38380;DHT22;38377;47.418;18.882;2022-10-26T14:18:27;16.10;99.90
38380;DHT22;38377;47.418;18.882;2022-10-26T14:23:33;16.20;99.90
38380;DHT22;38377;47.418;18.882;2022-10-26T14:25:59;16.20;99.90
38380;DHT22;38377;47.418;18.882;2022-10-26T14:28:27;16.20;99.90
38380;DHT22;38377;47.418;18.882;2022-10-26T14:30:53;16.20;99.90
38380;DHT22;38377;47.418;18.882;2022-10-26T14:33:25;16.30;99.90
38380;DHT22;38377;47.418;18.882;2022-10-26T14:35:52;16.20;99.90
38380;DHT22;38377;47.418;18.882;2022-10-26T14:38:22;16.20;99.90
38380;DHT22;38377;47.418;18.882;2022-10-26T14:40:52;16.20;99.90
38380;DHT22;38377;47.418;18.882;2022-10-26T14:43:22;16.20;99.90
38380;DHT22;38377;47.418;18.882;2022-10-26T14:45:50;16.20;99.90
38380;DHT22;38377;47.418;18.882;2022-10-26T14:48:23;16.10;99.90
38380;DHT22;38377;47.418;18.882;2022-10-26T14:51:14;16.10;99.90
38380;DHT22;38377;47.418;18.882;2022-10-26T14:53:47;16.00;99.90
38380;DHT22;38377;47.418;18.882;2022-10-26T14:56:21;16.00;99.90
38380;DHT22;38377;47.418;18.882;2022-10-26T14:58:48;16.00;99.90
38380;DHT22;38377;47.418;18.882;2022-10-26T15:03:57;15.80;99.90
38380;DHT22;38377;47.418;18.882;2022-10-26T15:08:57;15.70;99.90
38380;DHT22;38377;47.418;18.882;2022-10-26T15:11:27;15.60;99.90
38380;DHT22;38377;47.418;18.882;2022-10-26T15:13:54;15.60;99.90
38380;DHT22;38377;47.418;18.882;2022-10-26T15:16:23;15.60;99.90
38380;DHT22;38377;47.418;18.882;2022-10-26T15:21:35;15.40;99.90
38380;DHT22;38377;47.418;18.882;2022-10-26T15:24:02;15.40;99.90
38380;DHT22;38377;47.418;18.882;2022-10-26T15:26:28;15.40;99.90
38380;DHT22;38377;47.418;18.882;2022-10-26T15:28:54;15.30;99.90
38380;DHT22;38377;47.418;18.882;2022-10-26T15:38:47;15.20;99.90
38380;DHT22;38377;47.418;18.882;2022-10-26T15:41:34;15.10;99.90
38380;DHT22;38377;47.418;18.882;2022-10-26T15:44:03;15.10;99.90
38380;DHT22;38377;47.418;18.882;2022-10-26T15:46:35;15.00;99.90
38380;DHT22;38377;47.418;18.882;2022-10-26T15:49:02;14.90;99.90
38380;DHT22;38377;47.418;18.882;2022-10-26T15:51:29;14.90;99.90
38380;DHT22;38377;47.418;18.882;2022-10-26T15:54:01;14.80;99.90
38380;DHT22;38377;47.418;18.882;2022-10-26T15:56:27;14.70;99.90
38380;DHT22;38377;47.418;18.882;2022-10-26T15:58:53;14.70;99.90
38380;DHT22;38377;47.418;18.882;2022-10-26T16:01:21;14.70;99.90
38380;DHT22;38377;47.418;18.882;2022-10-26T16:03:48;14.60;99.90
38380;DHT22;38377;47.418;18.882;2022-10-26T16:08:51;14.70;99.90
38380;DHT22;38377;47.418;18.882;2022-10-26T16:11:17;14.70;99.90
38380;DHT22;38377;47.418;18.882;2022-10-26T16:13:43;14.70;99.90
38380;DHT22;38377;47.418;18.882;2022-10-26T16:16:15;14.70;99.90
38380;DHT22;38377;47.418;18.882;2022-10-26T16:18:41;14.70;99.90
38380;DHT22;38377;47.418;18.882;2022-10-26T16:21:15;14.70;99.90
38380;DHT22;38377;47.418;18.882;2022-10-26T16:23:44;14.70;99.90
38380;DHT22;38377;47.418;18.882;2022-10-26T16:26:09;14.70;99.90
38380;DHT22;38377;47.418;18.882;2022-10-26T16:28:35;14.80;99.90
38380;DHT22;38377;47.418;18.882;2022-10-26T16:31:04;14.80;99.90
38380;DHT22;38377;47.418;18.882;2022-10-26T16:33:30;14.80;99.90
38380;DHT22;38377;47.418;18.882;2022-10-26T16:35:57;14.80;99.90
38380;DHT22;38377;47.418;18.882;2022-10-26T16:38:23;14.80;99.90
38380;DHT22;38377;47.418;18.882;2022-10-26T16:40:49;14.80;99.90
38380;DHT22;38377;47.418;18.882;2022-10-26T16:43:15;14.70;99.90
38380;DHT22;38377;47.418;18.882;2022-10-26T16:45:40;14.70;99.90
38380;DHT22;38377;47.418;18.882;2022-10-26T16:48:07;14.60;99.90
38380;DHT22;38377;47.418;18.882;2022-10-26T16:50:38;14.60;99.90
38380;DHT22;38377;47.418;18.882;2022-10-26T16:53:04;14.60;99.90
38380;DHT22;38377;47.418;18.882;2022-10-26T16:55:30;14.50;99.90
38380;DHT22;38377;47.418;18.882;2022-10-26T16:57:55;14.40;99.90
38380;DHT22;38377;47.418;18.882;2022-10-26T17:00:21;14.40;99.90
38380;DHT22;38377;47.418;18.882;2022-10-26T17:02:47;14.30;99.90
38380;DHT22;38377;47.418;18.882;2022-10-26T17:05:13;14.30;99.90
38380;DHT22;38377;47.418;18.882;2022-10-26T17:07:38;14.30;99.90
38380;DHT22;38377;47.418;18.882;2022-10-26T17:10:04;14.20;99.90
38380;DHT22;38377;47.418;18.882;2022-10-26T17:12:30;14.30;99.90
38380;DHT22;38377;47.418;18.882;2022-10-26T17:14:56;14.20;99.90
38380;DHT22;38377;47.418;18.882;2022-10-26T17:17:23;14.20;99.90
38380;DHT22;38377;47.418;18.882;2022-10-26T17:19:49;14.10;99.90
38380;DHT22;38377;47.418;18.882;2022-10-26T17:22:14;14.10;99.90
38380;DHT22;38377;47.418;18.882;2022-10-26T17:24:40;14.00;99.90
38380;DHT22;38377;47.418;18.882;2022-10-26T17:27:06;14.00;99.90
38380;DHT22;38377;47.418;18.882;2022-10-26T17:29:31;14.00;99.90
38380;DHT22;38377;47.418;18.882;2022-10-26T17:31:57;14.00;99.90
38380;DHT22;38377;47.418;18.882;2022-10-26T17:34:22;13.90;99.90
38380;DHT22;38377;47.418;18.882;2022-10-26T17:36:48;13.90;99.90
38380;DHT22;38377;47.418;18.882;2022-10-26T17:39:14;13.90;99.90
38380;DHT22;38377;47.418;18.882;2022-10-26T17:41:40;13.90;99.90
38380;DHT22;38377;47.418;18.882;2022-10-26T17:44:06;13.90;99.90
38380;DHT22;38377;47.418;18.882;2022-10-26T17:46:32;13.80;99.90
38380;DHT22;38377;47.418;18.882;2022-10-26T17:48:59;13.90;99.90
38380;DHT22;38377;47.418;18.882;2022-10-26T17:51:27;13.90;99.90
38380;DHT22;38377;47.418;18.882;2022-10-26T17:53:53;13.90;99.90
38380;DHT22;38377;47.418;18.882;2022-10-26T17:56:26;13.90;99.90
38380;DHT22;38377;47.418;18.882;2022-10-26T17:58:56;13.80;99.90
38380;DHT22;38377;47.418;18.882;2022-10-26T18:01:23;13.70;99.90
38380;DHT22;38377;47.418;18.882;2022-10-26T18:03:49;13.70;99.90
38380;DHT22;38377;47.418;18.882;2022-10-26T18:06:15;13.60;99.90
38380;DHT22;38377;47.418;18.882;2022-10-26T18:08:42;13.50;99.90
38380;DHT22;38377;47.418;18.882;2022-10-26T18:11:21;13.40;99.90
38380;DHT22;38377;47.418;18.882;2022-10-26T18:13:47;13.30;99.90
38380;DHT22;38377;47.418;18.882;2022-10-26T18:16:15;13.10;99.90
38380;DHT22;38377;47.418;18.882;2022-10-26T18:18:42;13.10;99.90
38380;DHT22;38377;47.418;18.882;2022-10-26T18:21:15;13.00;99.90
38380;DHT22;38377;47.418;18.882;2022-10-26T18:23:41;13.00;99.90